Flight Track Log - Related Links

Times and Time Zones

All times are in EDT time to prevent confusion due to time zone crossing. See the AWE1262 flight status page for this flight to view local times or setup timezone preferences in your user account.

Time Position Orientation Groundspeed Altitude Reporting Facility
EDT Latitude Longitude Course Direction KTS MPH feet Rate Location/Type
Fri 11:49:13 PM 39.8614 -75.2706 37° Northeast 151 174 900  Level FAA TRACON SMA TRACON (SMA)
Fri 11:49:33 PM 39.8528 -75.2883 238° Southwest 166 191 1,900 2,250 Climbing FAA TRACON SMA TRACON (SMA)
Fri 11:49:53 PM 39.8439 -75.3047 235° Southwest 176 203 2,400 1,200 Climbing FAA TRACON SMA TRACON (SMA)
Fri 11:50:13 PM 39.8358 -75.3228 240° Southwest 209 241 2,700 2,250 Climbing FAA TRACON SMA TRACON (SMA)
Fri 11:50:33 PM 39.8206 -75.3450 228° Southwest 214 246 3,900 3,150 Climbing FAA TRACON SMA TRACON (SMA)
Fri 11:50:53 PM 39.8028 -75.3450 180° South 218 251 4,800 3,073 Climbing FAA TRACON SMA TRACON (SMA)
Fri 11:51:00 PM 39.7958 -74.7621 105° East  Level FlightAware Approximate
Fri 11:51:14 PM 39.7872 -75.3228 132° Southeast 237 273 6,000  Level FAA TRACON SMA TRACON (SMA)
Fri 11:51:33 PM 39.7853 -75.2919 95° East 311 358 6,600 2,100 Climbing FAA TRACON SMA TRACON (SMA)
Fri 11:51:54 PM 39.7908 -75.2558 79° East 326 375 7,400 2,700 Climbing FAA TRACON SMA TRACON (SMA)
Fri 11:52:00 PM 39.8438 -74.6396 37° Northeast  Level FlightAware Approximate
Fri 11:52:13 PM 39.7914 -75.2111 89° East 329 379 8,400  Level FAA TRACON SMA TRACON (SMA)
Fri 11:52:34 PM 39.7914 -75.1744 90° East 329 379 9,400 2,700 Climbing FAA TRACON SMA TRACON (SMA)
Fri 11:52:53 PM 39.7914 -75.1392 90° East 330 380 10,200 1,800 Climbing FAA TRACON SMA TRACON (SMA)
Fri 11:53:00 PM 39.9468 -74.5532 37° Northeast  Level FlightAware Approximate
Fri 11:53:14 PM 39.7919 -75.0886 89° East 374 430 10,600  Level FAA TRACON SMA TRACON (SMA)
Fri 11:53:33 PM 39.7919 -75.0458 90° East 392 451 11,000 1,846 Climbing FAA TRACON SMA TRACON (SMA)
Fri 11:53:53 PM 39.7925 -75.0017 89° East 400 460 11,800 1,463 Climbing FAA TRACON SMA TRACON (SMA)
Fri 11:54:00 PM 40.0464 -74.4536 37° Northeast  Level FlightAware Approximate
Fri 11:54:14 PM 39.7925 -74.9467 90° East 398 458 12,000  Level FAA TRACON SMA TRACON (SMA)
Fri 11:54:33 PM 39.7928 -74.9039 90° East 401 461 12,000  Level FAA TRACON SMA TRACON (SMA)
Fri 11:54:54 PM 39.7931 -74.8567 90° East 404 465 12,000 300 Level FAA TRACON SMA TRACON (SMA)
Fri 11:55:13 PM 39.7933 -74.8006 90° East 404 465 12,200 1,650 Climbing FAA TRACON SMA TRACON (SMA)
Fri 11:55:34 PM 39.7983 -74.7550 82° East 433 498 13,100 2,850 Climbing FAA TRACON SMA TRACON (SMA)
Fri 11:55:53 PM 39.8125 -74.7117 67° East 427 491 14,100 2,550 Climbing FAA TRACON SMA TRACON (SMA)
Fri 11:56:14 PM 39.8456 -74.6675 46° Northeast 450 518 14,800 2,250 Climbing FAA TRACON SMA TRACON (SMA)
Fri 11:56:33 PM 39.8769 -74.6350 38° Northeast 465 535 15,600 2,550 Climbing FAA TRACON SMA TRACON (SMA)
Fri 11:56:54 PM 39.9158 -74.5964 37° Northeast 461 531 16,500 2,400 Climbing FAA TRACON SMA TRACON (SMA)
Fri 11:57:13 PM 39.9478 -74.5647 37° Northeast 464 534 17,200 2,100 Climbing FAA TRACON SMA TRACON (SMA)
Fri 11:57:34 PM 39.9797 -74.5333 37° Northeast 466 536 17,900 1,650 Climbing FAA TRACON SMA TRACON (SMA)
Fri 11:57:53 PM 39.9878 -74.5253 37° Northeast 468 539 18,300 1,944 Climbing FAA TRACON SMA TRACON (SMA)
Fri 11:59:22 PM 40.1614 -74.3533 37° Northeast 460 529 21,400 1,907 Climbing New York Center
Sat 12:00:24 AM 40.2731 -74.2450 36° Northeast 481 554 23,100 1,403 Climbing New York Center
Sat 12:02:00 AM 40.4390 -74.2380 North  Level FlightAware Approximate
Sat 12:04:00 AM 40.7892 -74.1397 North 508 585 27,900  Level Boston Center
Sat 12:05:00 AM 40.9333 -74.1133 North 513 590 28,900 1,150 Climbing Boston Center
Sat 12:06:00 AM 41.0817 -74.0894 North 524 603 30,200 1,250 Climbing Boston Center
Sat 12:07:00 AM 41.2319 -74.0631 North 529 609 31,400 1,150 Climbing Boston Center
Sat 12:08:00 AM 41.3783 -74.0392 North 529 609 32,500 800 Climbing Boston Center
Sat 12:09:00 AM 41.1358 -74.1000 North  Level FlightAware Approximate
Sat 12:09:00 AM 41.5244 -74.0150 North 534 615 33,000  Level Boston Center
Sat 12:10:00 AM 41.6769 -73.9883 North 540 621 33,000  Level Boston Center
Sat 12:11:00 AM 41.8128 -73.9664 North 540 621 33,000  Level Boston Center
Sat 12:12:00 AM 41.9653 -73.9422 North 545 627 33,000  Level Boston Center
Sat 12:13:00 AM 42.1158 -73.8983 12° North 545 627 33,000  Level Boston Center
Sat 12:14:00 AM 42.2322 -73.7636 41° Northeast 524 603 33,000  Level Boston Center
Sat 12:15:00 AM 42.3117 -73.5519 63° Northeast 522 601 33,000 -750 Level Boston Center
Sat 12:16:00 AM 42.3733 -73.4039 61° Northeast 516 594 31,500 -2,150 Descending Boston Center
Sat 12:17:00 AM 42.4500 -73.1997 63° Northeast 525 604 28,700 -2,650 Descending Boston Center
Sat 12:18:00 AM 42.5156 -73.0261 63° Northeast 530 610 26,200 -2,500 Descending Boston Center
Sat 12:19:00 AM 42.5811 -72.8461 64° Northeast 524 603 23,700 -2,800 Descending Boston Center
Sat 12:20:00 AM 42.6294 -72.6772 69° East 506 582 20,600 -2,950 Descending Boston Center
Sat 12:21:00 AM 42.6714 -72.5192 70° East 478 550 17,800 -3,150 Descending Boston Center
Sat 12:22:00 AM 42.7108 -72.3611 71° East 446 513 14,300 -2,900 Descending Boston Center
Sat 12:23:00 AM 42.7461 -72.2253 70° East 428 493 12,000 -1,950 Descending Boston Center
Sat 12:24:00 AM 42.7875 -72.0864 68° East 377 434 10,400 -1,750 Descending Boston Center
Sat 12:25:00 AM 42.8600 -71.9953 43° Northeast 345 397 8,500 -1,950 Descending Boston Center
Sat 12:26:00 AM 42.9286 -71.9097 42° Northeast 338 389 6,500 -1,700 Descending Boston Center
Sat 12:27:00 AM 42.9906 -71.8297 43° Northeast 318 366 5,100 -1,250 Descending Boston Center
Sat 12:28:00 AM 43.0464 -71.7469 47° Northeast 303 349 4,000 -1,050 Descending Boston Center
Sat 12:29:00 AM 43.0792 -71.6469 66° East 286 329 3,000 -857 Descending Boston Center
Sat 12:30:13 AM 43.0825 -71.5333 88° East 254 292 2,100 -409 Descending Boston Center
Sat 12:31:12 AM 43.0383 -71.4997 151° Southeast 199 229 2,100 -353 Level Boston Center
Sat 12:32:12 AM 42.9944 -71.4722 155° Southeast 172 198 1,400 -700 Descending Boston Center
Sat 12:33:12 AM 42.9631 -71.4528 156° South 144 166 700 -500 Descending Boston Center
Sat 12:34:12 AM 42.9275 -71.4333 158° South 139 160 400 -300 Descending Boston Center
Sat 12:39:00 AM 42.9167 -71.4333 316° Northwest  Level FlightAware Approximate
Sat 12:46:00 AM 42.9328 -71.4358 316° Northwest  Level Estimated
Sat 12:47:00 AM 42.9328 -71.4358 316° Northwest  Level Estimated
Sat 12:48:00 AM 42.9328 -71.4358 316° Northwest  Level Estimated
Sat 12:49:00 AM 42.9328 -71.4358 316° Northwest  Level Estimated
Sat 12:50:00 AM 42.9328 -71.4358 316° Northwest  Level Estimated

Login

Don't have an account? Register now (free) for customized features, flight alerts, and more!